Belvedere Tiburon, California
Current Conditions -  °F | °C
As of 2:53 PM on Friday 28 Nov 2014 (Local Time) from KOAK Reporting Station
Scattered Clouds Scattered Clouds  
Wind Chill: 61°   Ceiling: Unl
Heat Index: 61°   Visibility: 10mi
Dew Point: 51°   Wind: 7mph
Humidity: 70%   Direction: 310°NW
Pressure: 29.92"   Gusts: NA
Location:  37.89°N, 122.47°W
Report Text: KOAK 282253Z 31006KT 10SM FEW012 SCT150 16/11 A2992 RMK AO2 SLP132 T01610106
Loading
Personal Weather Stations






























Interactive Weather Map New forecast layout! Learn more

10-Day Weather Forecast

Advertisements
Track Severe Weather on mobile